sensor_id;sensor_type;location;lat;lon;timestamp;pressure;altitude;pressure_sealevel;temperature;humidity
66206;BME280;53009;52.490;4.976;2024-01-15T00:01:20;155800;;;3.3;12.4
66206;BME280;53009;52.490;4.976;2024-01-15T00:06:20;155800;;;3.3;13
66206;BME280;53009;52.490;4.976;2024-01-15T00:11:20;155800;;;3.3;13.7
66206;BME280;53009;52.490;4.976;2024-01-15T00:16:20;155800;;;3.2;13.8
66206;BME280;53009;52.490;4.976;2024-01-15T00:21:20;155800;;;3.1;13.8
66206;BME280;53009;52.490;4.976;2024-01-15T00:26:20;155800;;;3.1;13.8
66206;BME280;53009;52.490;4.976;2024-01-15T00:31:20;155800;;;3.1;14.1
66206;BME280;53009;52.490;4.976;2024-01-15T00:36:20;155700;;;2.9;14.5
66206;BME280;53009;52.490;4.976;2024-01-15T00:41:20;155700;;;2.9;14.8
66206;BME280;53009;52.490;4.976;2024-01-15T00:46:20;155700;;;2.8;14.9
66206;BME280;53009;52.490;4.976;2024-01-15T00:51:20;155700;;;2.7;15
66206;BME280;53009;52.490;4.976;2024-01-15T00:56:20;155700;;;2.7;15.1
66206;BME280;53009;52.490;4.976;2024-01-15T01:01:20;155700;;;2.7;15.1
66206;BME280;53009;52.490;4.976;2024-01-15T01:06:20;155700;;;2.7;14.9
66206;BME280;53009;52.490;4.976;2024-01-15T01:11:20;155700;;;2.7;14.9
66206;BME280;53009;52.490;4.976;2024-01-15T01:16:20;155700;;;2.7;14.7
66206;BME280;53009;52.490;4.976;2024-01-15T01:21:20;155700;;;2.7;14.8
66206;BME280;53009;52.490;4.976;2024-01-15T01:26:20;155700;;;2.8;14.9
66206;BME280;53009;52.490;4.976;2024-01-15T01:31:20;155700;;;2.8;15
66206;BME280;53009;52.490;4.976;2024-01-15T01:36:20;155700;;;2.9;15
66206;BME280;53009;52.490;4.976;2024-01-15T01:41:20;155700;;;2.9;15.1
66206;BME280;53009;52.490;4.976;2024-01-15T01:46:20;155700;;;2.9;15.2
66206;BME280;53009;52.490;4.976;2024-01-15T01:51:21;155700;;;2.9;15.2
66206;BME280;53009;52.490;4.976;2024-01-15T01:56:20;155700;;;2.9;15.5
66206;BME280;53009;52.490;4.976;2024-01-15T02:01:20;155700;;;2.9;15.2
66206;BME280;53009;52.490;4.976;2024-01-15T02:06:20;155700;;;2.8;15.2
66206;BME280;53009;52.490;4.976;2024-01-15T02:11:20;155700;;;2.8;15.1
66206;BME280;53009;52.490;4.976;2024-01-15T02:16:20;155700;;;2.8;15.1
66206;BME280;53009;52.490;4.976;2024-01-15T02:21:23;155700;;;2.9;15.1
66206;BME280;53009;52.490;4.976;2024-01-15T02:26:20;155600;;;2.8;15.3
66206;BME280;53009;52.490;4.976;2024-01-15T02:31:20;155600;;;2.5;15.3
66206;BME280;53009;52.490;4.976;2024-01-15T02:36:20;155600;;;2.4;15.6
66206;BME280;53009;52.490;4.976;2024-01-15T02:41:20;155600;;;2.3;15.7
66206;BME280;53009;52.490;4.976;2024-01-15T02:46:20;155600;;;2.3;16
66206;BME280;53009;52.490;4.976;2024-01-15T02:51:21;155600;;;2.3;16.1
66206;BME280;53009;52.490;4.976;2024-01-15T02:56:21;155600;;;2.4;16
66206;BME280;53009;52.490;4.976;2024-01-15T03:01:20;155600;;;2.4;15.9
66206;BME280;53009;52.490;4.976;2024-01-15T03:06:20;155600;;;2.4;15.9
66206;BME280;53009;52.490;4.976;2024-01-15T03:11:24;155600;;;2.4;15.9
66206;BME280;53009;52.490;4.976;2024-01-15T03:16:20;155600;;;2.4;16
66206;BME280;53009;52.490;4.976;2024-01-15T03:21:20;155600;;;2.3;15.9
66206;BME280;53009;52.490;4.976;2024-01-15T03:26:21;155600;;;2.3;16.2
66206;BME280;53009;52.490;4.976;2024-01-15T03:31:21;155600;;;2.3;16.3
66206;BME280;53009;52.490;4.976;2024-01-15T03:36:21;155600;;;2.4;16.2
66206;BME280;53009;52.490;4.976;2024-01-15T03:41:20;155600;;;2.4;16
66206;BME280;53009;52.490;4.976;2024-01-15T03:46:20;155600;;;2.4;16
66206;BME280;53009;52.490;4.976;2024-01-15T03:51:21;155600;;;2.4;15.9
66206;BME280;53009;52.490;4.976;2024-01-15T03:56:21;155600;;;2.4;15.9
66206;BME280;53009;52.490;4.976;2024-01-15T04:01:21;155600;;;2.5;15.9
66206;BME280;53009;52.490;4.976;2024-01-15T04:06:21;155600;;;2.5;16
66206;BME280;53009;52.490;4.976;2024-01-15T04:11:20;155500;;;2.6;16.1
66206;BME280;53009;52.490;4.976;2024-01-15T04:16:21;155600;;;2.7;16
66206;BME280;53009;52.490;4.976;2024-01-15T04:21:21;155600;;;2.7;16.1
66206;BME280;53009;52.490;4.976;2024-01-15T04:26:21;155500;;;2.7;16
66206;BME280;53009;52.490;4.976;2024-01-15T04:31:21;155500;;;2.7;15.8
66206;BME280;53009;52.490;4.976;2024-01-15T04:36:21;155500;;;2.7;15.7
66206;BME280;53009;52.490;4.976;2024-01-15T04:41:21;155500;;;2.6;15.9
66206;BME280;53009;52.490;4.976;2024-01-15T04:46:21;155500;;;2.6;15.8
66206;BME280;53009;52.490;4.976;2024-01-15T04:51:21;155500;;;2.6;15.7
66206;BME280;53009;52.490;4.976;2024-01-15T04:56:21;155500;;;2.6;15.8
66206;BME280;53009;52.490;4.976;2024-01-15T05:01:21;155500;;;2.6;15.9
66206;BME280;53009;52.490;4.976;2024-01-15T05:06:21;155500;;;2.6;16
66206;BME280;53009;52.490;4.976;2024-01-15T05:11:21;155500;;;2.6;16
66206;BME280;53009;52.490;4.976;2024-01-15T05:16:24;155500;;;2.5;16.1
66206;BME280;53009;52.490;4.976;2024-01-15T05:21:21;155500;;;2.4;16.4
66206;BME280;53009;52.490;4.976;2024-01-15T05:26:21;155500;;;2.5;16.3
66206;BME280;53009;52.490;4.976;2024-01-15T05:31:21;155500;;;2.4;16.4
66206;BME280;53009;52.490;4.976;2024-01-15T05:36:21;155500;;;2.3;16.5
66206;BME280;53009;52.490;4.976;2024-01-15T05:41:21;155500;;;2.3;16.5
66206;BME280;53009;52.490;4.976;2024-01-15T05:46:21;155500;;;2.3;16.4
66206;BME280;53009;52.490;4.976;2024-01-15T05:51:21;155500;;;2.2;16.5
66206;BME280;53009;52.490;4.976;2024-01-15T05:56:21;155600;;;2.2;16.5
66206;BME280;53009;52.490;4.976;2024-01-15T06:01:21;155600;;;2.2;16.5
66206;BME280;53009;52.490;4.976;2024-01-15T06:06:21;155600;;;2.2;16.5
66206;BME280;53009;52.490;4.976;2024-01-15T06:11:21;155600;;;2.2;16.7
66206;BME280;53009;52.490;4.976;2024-01-15T06:16:21;155700;;;2.2;16.7
66206;BME280;53009;52.490;4.976;2024-01-15T06:21:21;155700;;;2.2;16.8
66206;BME280;53009;52.490;4.976;2024-01-15T06:26:21;155700;;;2.3;16.8
66206;BME280;53009;52.490;4.976;2024-01-15T06:31:21;155700;;;2.3;16.2
66206;BME280;53009;52.490;4.976;2024-01-15T06:36:21;155700;;;2.2;15.9
66206;BME280;53009;52.490;4.976;2024-01-15T06:41:21;155800;;;2.3;15.5
66206;BME280;53009;52.490;4.976;2024-01-15T06:46:21;155800;;;2.3;15.6
66206;BME280;53009;52.490;4.976;2024-01-15T06:51:21;155800;;;2.3;15.7
66206;BME280;53009;52.490;4.976;2024-01-15T06:56:21;155800;;;2.2;15.6
66206;BME280;53009;52.490;4.976;2024-01-15T07:01:21;155800;;;2.2;15.7
66206;BME280;53009;52.490;4.976;2024-01-15T07:06:21;155800;;;2.2;15.8
66206;BME280;53009;52.490;4.976;2024-01-15T07:11:21;155900;;;2.1;16.1
66206;BME280;53009;52.490;4.976;2024-01-15T07:16:21;155900;;;2.1;16.2
66206;BME280;53009;52.490;4.976;2024-01-15T07:21:24;155900;;;2.1;16.2
66206;BME280;53009;52.490;4.976;2024-01-15T07:26:24;155900;;;2.2;15.9
66206;BME280;53009;52.490;4.976;2024-01-15T07:31:21;155900;;;2.2;15.8
66206;BME280;53009;52.490;4.976;2024-01-15T07:36:21;156000;;;2.2;15.7
66206;BME280;53009;52.490;4.976;2024-01-15T07:41:21;156000;;;2.3;15.7
66206;BME280;53009;52.490;4.976;2024-01-15T07:46:21;156000;;;2.3;15.5
66206;BME280;53009;52.490;4.976;2024-01-15T07:51:21;156000;;;2.3;15.6
66206;BME280;53009;52.490;4.976;2024-01-15T07:56:21;156000;;;2.4;15.7
66206;BME280;53009;52.490;4.976;2024-01-15T08:01:21;156000;;;2.4;15.7
66206;BME280;53009;52.490;4.976;2024-01-15T08:06:21;156000;;;2.4;15.7
66206;BME280;53009;52.490;4.976;2024-01-15T08:11:21;156100;;;2.4;15.3
66206;BME280;53009;52.490;4.976;2024-01-15T08:16:21;156100;;;2.4;15.3
66206;BME280;53009;52.490;4.976;2024-01-15T08:21:21;156100;;;2.4;15.1
66206;BME280;53009;52.490;4.976;2024-01-15T08:26:21;156100;;;2.3;15.1
66206;BME280;53009;52.490;4.976;2024-01-15T08:31:21;156100;;;2.2;15.7
66206;BME280;53009;52.490;4.976;2024-01-15T08:36:21;156100;;;2.2;15.8
66206;BME280;53009;52.490;4.976;2024-01-15T08:41:21;156100;;;2.3;15.7
66206;BME280;53009;52.490;4.976;2024-01-15T08:46:21;156100;;;2.3;15.5
66206;BME280;53009;52.490;4.976;2024-01-15T08:51:21;156200;;;2.3;15.5
66206;BME280;53009;52.490;4.976;2024-01-15T08:56:21;156200;;;2.3;15.5
66206;BME280;53009;52.490;4.976;2024-01-15T09:01:21;156200;;;2.4;15.5
66206;BME280;53009;52.490;4.976;2024-01-15T09:06:21;156200;;;2.5;15.2
66206;BME280;53009;52.490;4.976;2024-01-15T09:11:21;156200;;;2.5;14.9
66206;BME280;53009;52.490;4.976;2024-01-15T09:16:21;156200;;;2.6;14.7
66206;BME280;53009;52.490;4.976;2024-01-15T09:21:21;156200;;;2.6;14.6
66206;BME280;53009;52.490;4.976;2024-01-15T09:26:21;156200;;;2.9;14.6
66206;BME280;53009;52.490;4.976;2024-01-15T09:31:21;156200;;;3.2;14.6
66206;BME280;53009;52.490;4.976;2024-01-15T09:36:21;156200;;;3.4;14.1
66206;BME280;53009;52.490;4.976;2024-01-15T09:41:21;156200;;;3.2;14.1
66206;BME280;53009;52.490;4.976;2024-01-15T09:46:21;156200;;;3.1;14.2
66206;BME280;53009;52.490;4.976;2024-01-15T09:51:21;156200;;;3;14.1
66206;BME280;53009;52.490;4.976;2024-01-15T09:56:21;156200;;;2.9;14
66206;BME280;53009;52.490;4.976;2024-01-15T10:01:21;156200;;;3;14.6
66206;BME280;53009;52.490;4.976;2024-01-15T10:06:21;156300;;;3.3;13.5
66206;BME280;53009;52.490;4.976;2024-01-15T10:11:21;156300;;;3.4;13.1
66206;BME280;53009;52.490;4.976;2024-01-15T10:16:21;156300;;;3.4;13.3
66206;BME280;53009;52.490;4.976;2024-01-15T10:21:21;156300;;;3.3;12.9
66206;BME280;53009;52.490;4.976;2024-01-15T10:26:24;156300;;;3;14.3
66206;BME280;53009;52.490;4.976;2024-01-15T10:31:21;156300;;;2.9;14.6
66206;BME280;53009;52.490;4.976;2024-01-15T10:36:21;156300;;;2.8;14.7
66206;BME280;53009;52.490;4.976;2024-01-15T10:41:21;156300;;;3;14.8
66206;BME280;53009;52.490;4.976;2024-01-15T10:46:21;156300;;;2.9;14.4
66206;BME280;53009;52.490;4.976;2024-01-15T10:51:22;156300;;;3.1;14.7
66206;BME280;53009;52.490;4.976;2024-01-15T10:56:21;156300;;;3.2;14.4
66206;BME280;53009;52.490;4.976;2024-01-15T11:01:21;156300;;;3.5;14.4
66206;BME280;53009;52.490;4.976;2024-01-15T11:06:22;156300;;;3.4;14.2
66206;BME280;53009;52.490;4.976;2024-01-15T11:11:21;156300;;;3.3;14.1
66206;BME280;53009;52.490;4.976;2024-01-15T11:16:21;156300;;;3.3;13.9
66206;BME280;53009;52.490;4.976;2024-01-15T11:21:23;156400;;;3.7;13.3
66206;BME280;53009;52.490;4.976;2024-01-15T11:26:29;156400;;;4.1;12.9
66206;BME280;53009;52.490;4.976;2024-01-15T11:31:25;156400;;;4;12.7
66206;BME280;53009;52.490;4.976;2024-01-15T11:36:21;156300;;;3.8;12.6
66206;BME280;53009;52.490;4.976;2024-01-15T11:41:21;156300;;;3.5;12.9
66206;BME280;53009;52.490;4.976;2024-01-15T11:46:21;156300;;;3.4;13.5
66206;BME280;53009;52.490;4.976;2024-01-15T11:51:21;156300;;;3.3;13.6
66206;BME280;53009;52.490;4.976;2024-01-15T11:56:21;156300;;;2.7;14.4
66206;BME280;53009;52.490;4.976;2024-01-15T12:01:21;156200;;;2.6;15
66206;BME280;53009;52.490;4.976;2024-01-15T12:06:21;156300;;;2.6;15.4
66206;BME280;53009;52.490;4.976;2024-01-15T12:11:21;156200;;;2.5;15.4
66206;BME280;53009;52.490;4.976;2024-01-15T12:16:21;156200;;;2.6;15.4
66206;BME280;53009;52.490;4.976;2024-01-15T12:21:21;156200;;;2.6;15.3
66206;BME280;53009;52.490;4.976;2024-01-15T12:26:21;156200;;;2.7;15.3
66206;BME280;53009;52.490;4.976;2024-01-15T12:31:21;156200;;;2.7;15.2
66206;BME280;53009;52.490;4.976;2024-01-15T12:36:21;156200;;;2.8;15.3
66206;BME280;53009;52.490;4.976;2024-01-15T12:41:21;156200;;;2.8;15.1
66206;BME280;53009;52.490;4.976;2024-01-15T12:46:21;156200;;;3;15.1
66206;BME280;53009;52.490;4.976;2024-01-15T12:51:24;156200;;;3.1;14.4
66206;BME280;53009;52.490;4.976;2024-01-15T12:56:21;156200;;;3.3;13
66206;BME280;53009;52.490;4.976;2024-01-15T13:01:21;156200;;;3.6;12.6
66206;BME280;53009;52.490;4.976;2024-01-15T13:06:21;156200;;;3.7;12.3
66206;BME280;53009;52.490;4.976;2024-01-15T13:11:24;156200;;;3.3;12.7
66206;BME280;53009;52.490;4.976;2024-01-15T13:16:21;156200;;;3.4;13.1
66206;BME280;53009;52.490;4.976;2024-01-15T13:21:21;156100;;;3.3;13.1
66206;BME280;53009;52.490;4.976;2024-01-15T13:26:21;156200;;;3.2;13.6
66206;BME280;53009;52.490;4.976;2024-01-15T13:31:21;156100;;;3.5;13
66206;BME280;53009;52.490;4.976;2024-01-15T13:36:21;156100;;;3.8;12.4
66206;BME280;53009;52.490;4.976;2024-01-15T13:41:21;156100;;;3.7;12.5
66206;BME280;53009;52.490;4.976;2024-01-15T13:46:23;156100;;;3.6;12.7
66206;BME280;53009;52.490;4.976;2024-01-15T13:51:21;156100;;;3.8;12.8
66206;BME280;53009;52.490;4.976;2024-01-15T13:56:21;156100;;;4.2;12.5
66206;BME280;53009;52.490;4.976;2024-01-15T14:01:21;156100;;;4.1;11.3
66206;BME280;53009;52.490;4.976;2024-01-15T14:06:21;156000;;;3.8;10.4
66206;BME280;53009;52.490;4.976;2024-01-15T14:11:21;156100;;;3.9;10.8
66206;BME280;53009;52.490;4.976;2024-01-15T14:16:21;156100;;;4.1;10.9
66206;BME280;53009;52.490;4.976;2024-01-15T14:21:21;156100;;;4.1;10.6
66206;BME280;53009;52.490;4.976;2024-01-15T14:26:21;156100;;;4.1;9.5
66206;BME280;53009;52.490;4.976;2024-01-15T14:31:21;156100;;;4;8.5
66206;BME280;53009;52.490;4.976;2024-01-15T14:36:21;156100;;;3.8;8.2
66206;BME280;53009;52.490;4.976;2024-01-15T14:41:21;156100;;;3.8;8.4
66206;BME280;53009;52.490;4.976;2024-01-15T14:46:21;156100;;;3.9;8.8
66206;BME280;53009;52.490;4.976;2024-01-15T14:51:21;156100;;;3.6;10.2
66206;BME280;53009;52.490;4.976;2024-01-15T14:56:21;156100;;;3.1;12
66206;BME280;53009;52.490;4.976;2024-01-15T15:01:21;156200;;;2.9;13
66206;BME280;53009;52.490;4.976;2024-01-15T15:06:21;156200;;;3.1;13.1
66206;BME280;53009;52.490;4.976;2024-01-15T15:11:21;156200;;;2.8;13.7
66206;BME280;53009;52.490;4.976;2024-01-15T15:16:21;156200;;;2.7;14.3
66206;BME280;53009;52.490;4.976;2024-01-15T15:21:21;156200;;;2.7;14.5
66206;BME280;53009;52.490;4.976;2024-01-15T15:26:21;156200;;;2.8;13.9
66206;BME280;53009;52.490;4.976;2024-01-15T15:31:21;156200;;;2.9;13.6
66206;BME280;53009;52.490;4.976;2024-01-15T15:36:21;156300;;;2.8;13.7
66206;BME280;53009;52.490;4.976;2024-01-15T15:41:24;156300;;;2.9;13.6
66206;BME280;53009;52.490;4.976;2024-01-15T15:46:21;156300;;;2.8;13.5
66206;BME280;53009;52.490;4.976;2024-01-15T15:51:21;156300;;;2.8;13.6
66206;BME280;53009;52.490;4.976;2024-01-15T15:56:21;156300;;;2.8;13.7
66206;BME280;53009;52.490;4.976;2024-01-15T16:01:21;156300;;;2.8;13.3
66206;BME280;53009;52.490;4.976;2024-01-15T16:06:21;156300;;;2.9;13.4
66206;BME280;53009;52.490;4.976;2024-01-15T16:11:21;156300;;;2.9;13.4
66206;BME280;53009;52.490;4.976;2024-01-15T16:16:21;156300;;;2.9;13.4
66206;BME280;53009;52.490;4.976;2024-01-15T16:21:21;156300;;;2.8;13.3
66206;BME280;53009;52.490;4.976;2024-01-15T16:26:21;156300;;;2.8;13.4
66206;BME280;53009;52.490;4.976;2024-01-15T16:31:21;156300;;;2.8;13.4
66206;BME280;53009;52.490;4.976;2024-01-15T16:36:22;156300;;;2.9;13.5
66206;BME280;53009;52.490;4.976;2024-01-15T16:41:21;156300;;;2.8;13.7
66206;BME280;53009;52.490;4.976;2024-01-15T16:46:21;156300;;;2.9;13.8
66206;BME280;53009;52.490;4.976;2024-01-15T16:51:22;156200;;;3;13.7
66206;BME280;53009;52.490;4.976;2024-01-15T16:56:22;156200;;;3;13.4
66206;BME280;53009;52.490;4.976;2024-01-15T17:01:21;156200;;;3;13.3
66206;BME280;53009;52.490;4.976;2024-01-15T17:06:22;156200;;;3;13.1
66206;BME280;53009;52.490;4.976;2024-01-15T17:11:22;156200;;;3;12.7
66206;BME280;53009;52.490;4.976;2024-01-15T17:16:22;156200;;;3;12.4
66206;BME280;53009;52.490;4.976;2024-01-15T17:21:22;156200;;;3.2;11.5
66206;BME280;53009;52.490;4.976;2024-01-15T17:26:22;156200;;;3.2;11.4
66206;BME280;53009;52.490;4.976;2024-01-15T17:31:22;156200;;;3.2;11.6
66206;BME280;53009;52.490;4.976;2024-01-15T17:36:22;156200;;;3.2;12.3
66206;BME280;53009;52.490;4.976;2024-01-15T17:41:22;156200;;;3.2;12
66206;BME280;53009;52.490;4.976;2024-01-15T17:46:22;156200;;;3.1;11.9
66206;BME280;53009;52.490;4.976;2024-01-15T17:51:22;156100;;;3.1;11.4
66206;BME280;53009;52.490;4.976;2024-01-15T17:56:22;156200;;;3.2;11.6
66206;BME280;53009;52.490;4.976;2024-01-15T18:01:22;156100;;;3.1;12.3
66206;BME280;53009;52.490;4.976;2024-01-15T18:06:22;156100;;;3;12.7
66206;BME280;53009;52.490;4.976;2024-01-15T18:11:22;156100;;;2.9;13.1
66206;BME280;53009;52.490;4.976;2024-01-15T18:16:22;156100;;;2.9;13.3
66206;BME280;53009;52.490;4.976;2024-01-15T18:21:22;156100;;;2.8;13.3
66206;BME280;53009;52.490;4.976;2024-01-15T18:26:22;156200;;;2.8;13.4
66206;BME280;53009;52.490;4.976;2024-01-15T18:31:22;156200;;;2.7;13.6
66206;BME280;53009;52.490;4.976;2024-01-15T18:36:22;156200;;;2.7;13.7
66206;BME280;53009;52.490;4.976;2024-01-15T18:41:22;156100;;;2.7;13.9
66206;BME280;53009;52.490;4.976;2024-01-15T18:46:22;156100;;;2.6;13.8
66206;BME280;53009;52.490;4.976;2024-01-15T18:51:22;156100;;;2.5;14
66206;BME280;53009;52.490;4.976;2024-01-15T18:56:22;156100;;;2.5;14.1
66206;BME280;53009;52.490;4.976;2024-01-15T19:01:25;156100;;;2.6;14.3
66206;BME280;53009;52.490;4.976;2024-01-15T19:06:22;156100;;;2.8;13.7
66206;BME280;53009;52.490;4.976;2024-01-15T19:11:22;156100;;;2.8;13.2
66206;BME280;53009;52.490;4.976;2024-01-15T19:16:22;156100;;;2.7;13.4
66206;BME280;53009;52.490;4.976;2024-01-15T19:21:22;156100;;;2.7;13.5
66206;BME280;53009;52.490;4.976;2024-01-15T19:26:22;156100;;;2.7;13.7
66206;BME280;53009;52.490;4.976;2024-01-15T19:31:22;156000;;;2.6;13.8
66206;BME280;53009;52.490;4.976;2024-01-15T19:36:22;156000;;;2.6;14.1
66206;BME280;53009;52.490;4.976;2024-01-15T19:41:22;156000;;;2.6;14.1
66206;BME280;53009;52.490;4.976;2024-01-15T19:46:22;156000;;;2.6;14.2
66206;BME280;53009;52.490;4.976;2024-01-15T19:51:22;156100;;;2.5;14.2
66206;BME280;53009;52.490;4.976;2024-01-15T19:56:22;156100;;;2.5;14.3
66206;BME280;53009;52.490;4.976;2024-01-15T20:01:22;156100;;;2.6;14.2
66206;BME280;53009;52.490;4.976;2024-01-15T20:06:22;156100;;;2.6;14.3
66206;BME280;53009;52.490;4.976;2024-01-15T20:11:22;156100;;;2.6;14.5
66206;BME280;53009;52.490;4.976;2024-01-15T20:16:22;156100;;;2.5;14.3
66206;BME280;53009;52.490;4.976;2024-01-15T20:21:22;156100;;;2.5;14
66206;BME280;53009;52.490;4.976;2024-01-15T20:26:22;156100;;;2.4;13.9
66206;BME280;53009;52.490;4.976;2024-01-15T20:31:22;156200;;;2.3;14
66206;BME280;53009;52.490;4.976;2024-01-15T20:36:25;156200;;;2.3;14
66206;BME280;53009;52.490;4.976;2024-01-15T20:41:22;156200;;;2.2;14.1
66206;BME280;53009;52.490;4.976;2024-01-15T20:46:22;156200;;;2.2;14
66206;BME280;53009;52.490;4.976;2024-01-15T20:51:25;156200;;;2.2;13.8
66206;BME280;53009;52.490;4.976;2024-01-15T20:56:22;156200;;;2.2;13.8
66206;BME280;53009;52.490;4.976;2024-01-15T21:01:22;156300;;;2.3;13.8
66206;BME280;53009;52.490;4.976;2024-01-15T21:06:22;156300;;;2.3;13.8
66206;BME280;53009;52.490;4.976;2024-01-15T21:11:22;156300;;;2.4;13.8
66206;BME280;53009;52.490;4.976;2024-01-15T21:16:22;156300;;;2.4;13.9
66206;BME280;53009;52.490;4.976;2024-01-15T21:21:22;156300;;;2.5;13.9
66206;BME280;53009;52.490;4.976;2024-01-15T21:26:22;156300;;;2.5;13.9
66206;BME280;53009;52.490;4.976;2024-01-15T21:31:22;156300;;;2.5;13.9
66206;BME280;53009;52.490;4.976;2024-01-15T21:36:22;156300;;;2.3;14
66206;BME280;53009;52.490;4.976;2024-01-15T21:41:22;156300;;;2.3;14.1
66206;BME280;53009;52.490;4.976;2024-01-15T21:46:23;156300;;;2.2;14.3
66206;BME280;53009;52.490;4.976;2024-01-15T21:51:22;156300;;;2.2;14.3
66206;BME280;53009;52.490;4.976;2024-01-15T21:56:22;156300;;;2.2;14.2
66206;BME280;53009;52.490;4.976;2024-01-15T22:01:22;156300;;;2.3;14.2
66206;BME280;53009;52.490;4.976;2024-01-15T22:06:22;156300;;;2.4;13.9
66206;BME280;53009;52.490;4.976;2024-01-15T22:11:22;156300;;;2.4;13.4
66206;BME280;53009;52.490;4.976;2024-01-15T22:16:22;156300;;;2.5;13.3
66206;BME280;53009;52.490;4.976;2024-01-15T22:21:22;156300;;;2.4;13.7
66206;BME280;53009;52.490;4.976;2024-01-15T22:26:22;156300;;;2.3;13.9
66206;BME280;53009;52.490;4.976;2024-01-15T22:31:22;156300;;;2.2;14.1
66206;BME280;53009;52.490;4.976;2024-01-15T22:36:22;156300;;;2.2;14.1
66206;BME280;53009;52.490;4.976;2024-01-15T22:41:22;156300;;;2.1;14
66206;BME280;53009;52.490;4.976;2024-01-15T22:46:22;156300;;;2.1;14
66206;BME280;53009;52.490;4.976;2024-01-15T22:51:22;156200;;;2.2;14
66206;BME280;53009;52.490;4.976;2024-01-15T22:56:22;156200;;;2.2;14
66206;BME280;53009;52.490;4.976;2024-01-15T23:01:22;156200;;;2.3;13.9
66206;BME280;53009;52.490;4.976;2024-01-15T23:06:22;156200;;;2.3;14.1
66206;BME280;53009;52.490;4.976;2024-01-15T23:11:22;156200;;;2.3;14.3
66206;BME280;53009;52.490;4.976;2024-01-15T23:16:25;156200;;;2.3;14.5
66206;BME280;53009;52.490;4.976;2024-01-15T23:21:22;156200;;;2.3;14.5
66206;BME280;53009;52.490;4.976;2024-01-15T23:26:22;156200;;;2.3;14.5
66206;BME280;53009;52.490;4.976;2024-01-15T23:31:22;156200;;;2.2;14.4
66206;BME280;53009;52.490;4.976;2024-01-15T23:36:22;156200;;;2.1;14.5
66206;BME280;53009;52.490;4.976;2024-01-15T23:41:23;156100;;;2.1;14.5
66206;BME280;53009;52.490;4.976;2024-01-15T23:46:22;156100;;;2;14.7
66206;BME280;53009;52.490;4.976;2024-01-15T23:51:25;156100;;;1.9;14.7
66206;BME280;53009;52.490;4.976;2024-01-15T23:56:22;156100;;;1.8;14.8
